createdAt,value
2023-02-19T00:01:34.412Z,80.52
2023-02-19T00:04:03.845Z,80.73
2023-02-19T00:06:33.250Z,80.70
2023-02-19T00:09:00.474Z,80.65
2023-02-19T00:11:29.648Z,80.75
2023-02-19T00:13:57.890Z,80.80
2023-02-19T00:16:28.022Z,80.46
2023-02-19T00:18:56.493Z,80.55
2023-02-19T00:21:23.421Z,80.26
2023-02-19T00:23:55.476Z,80.60
2023-02-19T00:26:22.319Z,80.52
2023-02-19T00:28:50.272Z,80.48
2023-02-19T00:31:24.223Z,80.52
2023-02-19T00:33:53.620Z,80.75
2023-02-19T00:36:20.955Z,80.80
2023-02-19T00:38:48.159Z,81.04
2023-02-19T00:41:19.142Z,81.25
2023-02-19T00:43:59.024Z,81.35
2023-02-19T00:46:28.862Z,81.63
2023-02-19T00:48:56.363Z,81.69
2023-02-19T00:51:25.936Z,81.91
2023-02-19T00:53:52.423Z,82.05
2023-02-19T00:56:19.282Z,82.57
2023-02-19T00:58:45.944Z,82.52
2023-02-19T01:01:12.721Z,82.72
2023-02-19T01:03:39.923Z,82.68
2023-02-19T01:06:08.984Z,82.62
2023-02-19T01:08:36.509Z,82.43
2023-02-19T01:11:04.867Z,82.78
2023-02-19T01:13:32.190Z,82.71
2023-02-19T01:16:14.567Z,82.64
2023-02-19T01:18:41.439Z,82.86
2023-02-19T01:21:11.678Z,82.66
2023-02-19T01:23:38.534Z,82.88
2023-02-19T01:26:06.579Z,82.88
2023-02-19T01:28:33.735Z,82.57
2023-02-19T01:31:09.204Z,82.64
2023-02-19T01:33:36.118Z,82.94
2023-02-19T01:36:07.243Z,82.80
2023-02-19T01:38:33.767Z,82.48
2023-02-19T01:41:03.496Z,83.14
2023-02-19T01:43:32.583Z,82.88
2023-02-19T01:45:59.524Z,82.90
2023-02-19T01:48:37.677Z,83.12
2023-02-19T01:51:11.740Z,83.26
2023-02-19T01:53:44.968Z,83.12
2023-02-19T01:56:15.037Z,83.51
2023-02-19T01:58:41.977Z,83.56
2023-02-19T02:01:08.934Z,83.67
2023-02-19T02:03:38.152Z,83.62
2023-02-19T02:06:18.921Z,83.33
2023-02-19T02:09:04.544Z,83.51
2023-02-19T02:11:31.296Z,83.61
2023-02-19T02:13:58.504Z,83.82
2023-02-19T02:16:47.069Z,83.46
2023-02-19T02:19:25.564Z,83.27
2023-02-19T02:21:56.244Z,83.33
2023-02-19T02:24:50.670Z,83.42
2023-02-19T02:27:39.786Z,83.39
2023-02-19T02:30:25.502Z,83.37
2023-02-19T02:33:07.530Z,83.37
2023-02-19T02:35:42.730Z,83.05
2023-02-19T02:38:11.642Z,83.25
2023-02-19T02:40:42.110Z,83.09
2023-02-19T02:43:08.718Z,83.54
2023-02-19T02:45:35.390Z,84.00
2023-02-19T02:48:19.792Z,84.54
2023-02-19T02:51:09.462Z,84.45
2023-02-19T02:54:11.963Z,85.23
2023-02-19T02:56:41.529Z,84.91
2023-02-19T02:59:10.314Z,85.14
2023-02-19T03:02:01.591Z,85.30
2023-02-19T03:05:02.852Z,85.55
2023-02-19T03:07:34.508Z,85.50
2023-02-19T03:10:05.687Z,85.88
2023-02-19T03:12:52.597Z,85.95
2023-02-19T03:15:38.144Z,85.99
2023-02-19T03:18:28.028Z,85.49
2023-02-19T03:20:57.889Z,85.21
2023-02-19T03:23:49.716Z,85.27
2023-02-19T03:26:18.485Z,84.97
2023-02-19T03:29:06.248Z,84.95
2023-02-19T03:31:33.630Z,84.79
2023-02-19T03:34:05.437Z,84.83
2023-02-19T03:36:38.086Z,84.82
2023-02-19T03:39:09.264Z,85.12
2023-02-19T03:41:42.721Z,85.07
2023-02-19T03:44:24.114Z,85.35
2023-02-19T03:46:56.948Z,85.28
2023-02-19T03:49:29.534Z,85.21
2023-02-19T03:52:08.118Z,84.61
2023-02-19T03:54:37.916Z,84.99
2023-02-19T03:57:19.195Z,84.53
2023-02-19T03:59:51.717Z,84.54
2023-02-19T04:02:41.203Z,84.71
2023-02-19T04:05:16.755Z,84.71
2023-02-19T04:07:48.898Z,84.38
2023-02-19T04:10:17.739Z,83.81
2023-02-19T04:12:50.289Z,83.88
2023-02-19T04:15:22.094Z,83.89
2023-02-19T04:18:03.725Z,83.97
2023-02-19T04:20:34.739Z,84.13
2023-02-19T04:23:01.235Z,84.01
2023-02-19T04:25:30.485Z,83.86
2023-02-19T04:27:58.052Z,84.40
2023-02-19T04:30:24.781Z,84.28
2023-02-19T04:32:51.243Z,84.33
2023-02-19T04:35:17.708Z,84.54
2023-02-19T04:37:44.142Z,84.67
2023-02-19T04:40:11.029Z,84.26
2023-02-19T04:42:37.508Z,83.99
2023-02-19T04:45:04.268Z,84.51
2023-02-19T04:47:32.801Z,84.38
2023-02-19T04:49:59.452Z,84.59
2023-02-19T04:52:26.009Z,84.22
2023-02-19T04:54:52.539Z,84.19
2023-02-19T04:57:19.201Z,84.45
2023-02-19T04:59:46.708Z,84.29
2023-02-19T05:02:13.170Z,84.45
2023-02-19T05:04:39.636Z,84.06
2023-02-19T05:07:06.125Z,84.24
2023-02-19T05:09:32.843Z,84.06
2023-02-19T05:11:59.303Z,83.84
2023-02-19T05:14:26.138Z,83.92
2023-02-19T05:16:52.564Z,83.63
2023-02-19T05:19:18.978Z,84.02
2023-02-19T05:21:45.536Z,83.59
2023-02-19T05:24:12.035Z,84.07
2023-02-19T05:26:38.571Z,83.82
2023-02-19T05:29:05.051Z,84.05
2023-02-19T05:31:36.737Z,83.48
2023-02-19T05:34:03.567Z,83.43
2023-02-19T05:36:30.508Z,83.33
2023-02-19T05:38:57.877Z,83.70
2023-02-19T05:41:27.476Z,83.38
2023-02-19T05:43:55.156Z,83.31
2023-02-19T05:46:24.764Z,83.30
2023-02-19T05:48:52.940Z,83.25
2023-02-19T05:51:23.043Z,83.32
2023-02-19T05:53:50.570Z,83.38
2023-02-19T05:56:39.234Z,83.71
2023-02-19T05:59:16.997Z,83.74
2023-02-19T06:01:44.139Z,84.19
2023-02-19T06:04:11.999Z,84.10
2023-02-19T06:06:39.188Z,83.99
2023-02-19T06:09:06.787Z,83.96
2023-02-19T06:11:33.928Z,84.41
2023-02-19T06:14:00.861Z,84.05
2023-02-19T06:16:27.741Z,83.84
2023-02-19T06:18:54.527Z,83.92
2023-02-19T06:21:21.269Z,83.60
2023-02-19T06:23:47.828Z,83.77
2023-02-19T06:26:23.266Z,83.50
2023-02-19T06:28:51.747Z,83.51
2023-02-19T06:31:20.300Z,83.61
2023-02-19T06:33:47.607Z,83.48
2023-02-19T06:36:16.775Z,83.66
2023-02-19T06:38:44.342Z,83.73
2023-02-19T06:41:12.150Z,83.88
2023-02-19T06:43:39.076Z,84.21
2023-02-19T06:46:07.268Z,82.42
2023-02-19T06:48:34.751Z,82.18
2023-02-19T06:51:01.538Z,81.86
2023-02-19T06:53:28.202Z,82.61
2023-02-19T06:56:00.078Z,82.75
2023-02-19T06:58:27.351Z,82.80
2023-02-19T07:00:54.492Z,82.80
2023-02-19T07:03:22.122Z,82.26
2023-02-19T07:05:49.734Z,81.91
2023-02-19T07:08:19.644Z,82.08
2023-02-19T07:10:54.414Z,81.50
2023-02-19T07:13:21.264Z,80.97
2023-02-19T07:15:47.909Z,81.25
2023-02-19T07:18:14.528Z,81.32
2023-02-19T07:20:41.088Z,80.99
2023-02-19T07:23:07.741Z,81.32
2023-02-19T07:25:37.919Z,80.44
2023-02-19T07:28:04.695Z,80.79
2023-02-19T07:30:31.262Z,81.21
2023-02-19T07:32:57.953Z,81.47
2023-02-19T07:35:24.761Z,81.55
2023-02-19T07:37:51.436Z,81.28
2023-02-19T07:40:18.197Z,80.87
2023-02-19T07:42:44.796Z,80.86
2023-02-19T07:45:11.599Z,80.99
2023-02-19T07:47:39.133Z,80.84
2023-02-19T07:50:06.191Z,80.72
2023-02-19T07:52:34.389Z,81.00
2023-02-19T07:55:01.160Z,80.40
2023-02-19T07:57:29.184Z,80.25
2023-02-19T07:59:55.746Z,80.03
2023-02-19T08:02:42.446Z,80.24
2023-02-19T08:05:09.076Z,80.02
2023-02-19T08:07:37.024Z,80.49
2023-02-19T08:10:23.254Z,80.63
2023-02-19T08:13:18.428Z,80.44
2023-02-19T08:15:46.549Z,80.46
2023-02-19T08:18:14.747Z,80.09
2023-02-19T08:20:41.213Z,79.83
2023-02-19T08:23:10.939Z,80.30
2023-02-19T08:25:38.450Z,80.48
2023-02-19T08:28:05.689Z,80.01
2023-02-19T08:30:33.605Z,80.76
2023-02-19T08:33:02.217Z,79.92
2023-02-19T08:35:29.085Z,78.32
2023-02-19T08:37:58.773Z,77.71
2023-02-19T08:40:26.357Z,78.58
2023-02-19T08:42:53.009Z,78.78
2023-02-19T08:45:19.881Z,78.46
2023-02-19T08:47:46.336Z,78.08
2023-02-19T08:50:12.804Z,78.32
2023-02-19T08:52:39.410Z,78.24
2023-02-19T08:55:06.558Z,78.24
2023-02-19T08:57:37.613Z,78.49
2023-02-19T09:00:05.672Z,78.64
2023-02-19T09:02:32.248Z,78.90
2023-02-19T09:04:58.680Z,78.90
2023-02-19T09:07:25.212Z,78.13
2023-02-19T09:09:51.846Z,77.69
2023-02-19T09:12:18.761Z,77.07
2023-02-19T09:14:45.628Z,77.58
2023-02-19T09:17:12.326Z,77.85
2023-02-19T09:19:38.787Z,77.19
2023-02-19T09:22:06.024Z,77.15
2023-02-19T09:24:32.848Z,76.38
2023-02-19T09:26:59.800Z,75.60
2023-02-19T09:29:27.855Z,75.82
2023-02-19T09:31:59.287Z,74.06
2023-02-19T09:34:27.972Z,74.76
2023-02-19T09:36:54.887Z,74.24
2023-02-19T09:39:21.729Z,73.70
2023-02-19T09:42:01.288Z,73.53
2023-02-19T09:44:32.262Z,73.43
2023-02-19T09:47:00.628Z,73.33
2023-02-19T09:49:40.653Z,72.39
2023-02-19T09:52:24.752Z,72.56
2023-02-19T09:54:57.511Z,72.97
2023-02-19T09:57:25.966Z,72.25
2023-02-19T09:59:59.125Z,70.79
2023-02-19T10:02:26.196Z,69.69
2023-02-19T10:04:53.599Z,66.64
2023-02-19T10:07:24.086Z,67.12
2023-02-19T10:10:14.293Z,67.70
2023-02-19T10:12:48.305Z,67.61
2023-02-19T10:15:25.503Z,68.03
2023-02-19T10:17:52.738Z,67.60
2023-02-19T10:20:24.583Z,65.38
2023-02-19T10:22:58.916Z,66.06
2023-02-19T10:25:25.475Z,64.93
2023-02-19T10:27:52.028Z,66.16
2023-02-19T10:30:23.784Z,66.51
2023-02-19T10:33:01.152Z,65.43
2023-02-19T10:35:28.116Z,67.78
2023-02-19T10:37:54.707Z,66.85
2023-02-19T10:40:27.123Z,66.01
2023-02-19T10:42:58.913Z,66.00
2023-02-19T10:45:50.304Z,66.46
2023-02-19T10:48:35.138Z,66.35
2023-02-19T10:51:06.017Z,67.32
2023-02-19T10:53:43.555Z,64.90
2023-02-19T10:56:26.669Z,65.76
2023-02-19T10:58:53.184Z,64.04
2023-02-19T11:01:22.215Z,64.50
2023-02-19T11:03:50.141Z,64.96
2023-02-19T11:06:20.596Z,66.02
2023-02-19T11:09:00.007Z,65.02
2023-02-19T11:11:34.659Z,62.61
2023-02-19T11:14:05.564Z,63.72
2023-02-19T11:16:53.463Z,63.71
2023-02-19T11:19:42.517Z,62.69
2023-02-19T11:22:30.775Z,62.49
2023-02-19T11:25:18.584Z,62.93
2023-02-19T11:27:55.465Z,61.14
2023-02-19T11:30:33.303Z,61.29
2023-02-19T11:33:16.181Z,60.99
2023-02-19T11:35:44.964Z,60.21
2023-02-19T11:38:14.306Z,60.68
2023-02-19T11:40:46.029Z,61.21
2023-02-19T11:43:46.408Z,62.14
2023-02-19T11:46:39.177Z,60.61
2023-02-19T11:49:36.519Z,62.84
2023-02-19T11:52:41.749Z,63.11
2023-02-19T11:55:13.704Z,63.13
2023-02-19T11:57:47.885Z,62.82
2023-02-19T12:00:49.028Z,62.80
2023-02-19T12:03:48.859Z,63.22
2023-02-19T12:06:15.286Z,62.93
2023-02-19T12:08:53.460Z,62.68
2023-02-19T12:11:38.256Z,61.86
2023-02-19T12:14:41.734Z,59.97
2023-02-19T12:17:29.750Z,61.46
2023-02-19T12:19:58.720Z,58.63
2023-02-19T12:22:25.068Z,60.72
2023-02-19T12:25:16.290Z,62.23
2023-02-19T12:27:49.123Z,60.00
2023-02-19T12:30:41.885Z,60.34
2023-02-19T12:33:54.481Z,60.90
2023-02-19T12:36:35.903Z,59.24
2023-02-19T12:39:14.271Z,59.15
2023-02-19T12:41:51.958Z,58.80
2023-02-19T12:44:34.708Z,58.28
2023-02-19T12:47:02.480Z,58.16
2023-02-19T12:49:36.456Z,57.99
2023-02-19T12:52:23.781Z,56.73
2023-02-19T12:54:56.210Z,56.25
2023-02-19T12:57:29.758Z,57.36
2023-02-19T13:00:12.688Z,56.66
2023-02-19T13:03:13.504Z,56.31
2023-02-19T13:05:49.845Z,55.53
2023-02-19T13:08:42.100Z,56.05
2023-02-19T13:11:22.830Z,55.57
2023-02-19T13:14:06.323Z,54.29
2023-02-19T13:16:37.184Z,52.27
2023-02-19T13:19:05.077Z,52.66
2023-02-19T13:21:55.065Z,51.45
2023-02-19T13:24:27.575Z,50.62
2023-02-19T13:27:25.454Z,50.97
2023-02-19T13:30:26.302Z,50.92
2023-02-19T13:33:01.987Z,48.38
2023-02-19T13:35:55.962Z,49.08
2023-02-19T13:38:23.143Z,48.26
2023-02-19T13:41:27.648Z,49.66
2023-02-19T13:43:57.606Z,49.79
2023-02-19T13:46:25.754Z,49.37
2023-02-19T13:49:36.488Z,47.63
2023-02-19T13:52:30.403Z,49.21
2023-02-19T13:55:34.335Z,50.14
2023-02-19T13:58:35.862Z,49.93
2023-02-19T14:01:10.633Z,51.88
2023-02-19T14:03:37.202Z,51.78
2023-02-19T14:06:06.412Z,53.94
2023-02-19T14:08:52.671Z,51.58
2023-02-19T14:11:41.605Z,50.98
2023-02-19T14:14:23.427Z,51.62
2023-02-19T14:17:08.673Z,51.18
2023-02-19T14:19:41.176Z,49.20
2023-02-19T14:22:56.928Z,50.99
2023-02-19T14:25:43.619Z,50.19
2023-02-19T14:28:10.012Z,51.88
2023-02-19T14:30:42.539Z,53.22
2023-02-19T14:33:11.412Z,53.92
2023-02-19T14:35:44.107Z,55.61
2023-02-19T14:38:33.640Z,55.02
2023-02-19T14:41:01.026Z,54.67
2023-02-19T14:43:28.714Z,53.96
2023-02-19T14:46:00.288Z,54.64
2023-02-19T14:48:31.531Z,55.51
2023-02-19T14:51:04.758Z,53.89
2023-02-19T14:53:36.214Z,54.51
2023-02-19T14:56:03.718Z,53.92
2023-02-19T14:58:34.258Z,53.81
2023-02-19T15:01:00.741Z,55.02
2023-02-19T15:03:37.774Z,56.65
2023-02-19T15:06:12.638Z,55.46
2023-02-19T15:08:44.222Z,55.70
2023-02-19T15:11:17.375Z,56.34
2023-02-19T15:13:49.215Z,56.47
2023-02-19T15:16:18.447Z,55.39
2023-02-19T15:18:46.810Z,55.91
2023-02-19T15:21:43.284Z,55.89
2023-02-19T15:24:14.258Z,57.17
2023-02-19T15:26:43.220Z,57.16
2023-02-19T15:29:11.781Z,57.35
2023-02-19T15:31:48.329Z,58.01
2023-02-19T15:34:26.155Z,57.46
2023-02-19T15:36:59.658Z,58.07
2023-02-19T15:39:33.197Z,57.82
2023-02-19T15:42:02.330Z,59.32
2023-02-19T15:44:31.152Z,58.73
2023-02-19T15:47:03.011Z,59.24
2023-02-19T15:49:45.002Z,59.32
2023-02-19T15:52:19.644Z,59.38
2023-02-19T15:54:59.479Z,59.95
2023-02-19T15:57:32.359Z,60.10
2023-02-19T16:00:29.816Z,60.16
2023-02-19T16:02:58.060Z,60.53
2023-02-19T16:05:26.867Z,60.92
2023-02-19T16:08:20.646Z,61.12
2023-02-19T16:10:55.901Z,61.40
2023-02-19T16:13:24.047Z,61.40
2023-02-19T16:16:17.100Z,61.60
2023-02-19T16:18:46.634Z,61.71
2023-02-19T16:21:16.772Z,62.17
2023-02-19T16:23:45.149Z,62.90
2023-02-19T16:26:11.882Z,63.01
2023-02-19T16:28:40.288Z,63.75
2023-02-19T16:31:12.520Z,63.65
2023-02-19T16:33:40.539Z,63.43
2023-02-19T16:36:34.067Z,63.48
2023-02-19T16:39:03.185Z,63.40
2023-02-19T16:41:29.806Z,63.86
2023-02-19T16:43:56.291Z,63.86
2023-02-19T16:46:23.142Z,63.98
2023-02-19T16:48:53.312Z,63.94
2023-02-19T16:51:26.907Z,64.12
2023-02-19T16:53:53.387Z,63.98
2023-02-19T16:56:23.010Z,64.28
2023-02-19T16:58:50.514Z,64.15
2023-02-19T17:01:18.055Z,63.89
2023-02-19T17:03:47.042Z,63.90
2023-02-19T17:06:14.179Z,63.94
2023-02-19T17:08:44.769Z,64.21
2023-02-19T17:11:16.621Z,64.67
2023-02-19T17:13:47.640Z,64.79
2023-02-19T17:16:19.760Z,64.81
2023-02-19T17:18:46.431Z,65.04
2023-02-19T17:21:27.605Z,64.18
2023-02-19T17:23:54.526Z,64.53
2023-02-19T17:26:24.100Z,64.86
2023-02-19T17:28:50.974Z,64.94
2023-02-19T17:31:18.113Z,65.33
2023-02-19T17:33:46.787Z,65.28
2023-02-19T17:36:22.240Z,65.44
2023-02-19T17:38:48.711Z,66.25
2023-02-19T17:41:15.615Z,66.17
2023-02-19T17:43:42.033Z,66.33
2023-02-19T17:46:14.654Z,66.50
2023-02-19T17:48:43.660Z,66.73
2023-02-19T17:51:10.896Z,67.36
2023-02-19T17:53:37.681Z,67.05
2023-02-19T17:56:04.566Z,67.65
2023-02-19T17:58:31.166Z,67.21
2023-02-19T18:00:58.004Z,67.57
2023-02-19T18:03:24.496Z,67.81
2023-02-19T18:05:50.973Z,67.51
2023-02-19T18:08:19.751Z,67.37
2023-02-19T18:10:46.269Z,67.77
2023-02-19T18:13:13.024Z,67.60
2023-02-19T18:15:39.493Z,66.67
2023-02-19T18:18:05.965Z,67.01
2023-02-19T18:20:32.541Z,67.28
2023-02-19T18:22:59.031Z,67.74
2023-02-19T18:25:25.707Z,68.26
2023-02-19T18:27:53.079Z,68.46
2023-02-19T18:30:22.696Z,68.33
2023-02-19T18:32:49.743Z,68.21
2023-02-19T18:35:18.366Z,68.42
2023-02-19T18:37:45.559Z,68.76
2023-02-19T18:40:12.778Z,69.47
2023-02-19T18:42:39.874Z,69.21
2023-02-19T18:45:07.886Z,68.92
2023-02-19T18:47:34.426Z,68.85
2023-02-19T18:50:00.984Z,69.11
2023-02-19T18:52:30.637Z,68.44
2023-02-19T18:55:03.675Z,68.65
2023-02-19T18:57:30.141Z,68.93
2023-02-19T18:59:56.574Z,69.21
2023-02-19T19:02:23.321Z,69.29
2023-02-19T19:04:52.041Z,69.16
2023-02-19T19:07:20.207Z,69.37
2023-02-19T19:09:47.356Z,69.23
2023-02-19T19:12:14.559Z,68.96
2023-02-19T19:14:41.464Z,69.01
2023-02-19T19:17:07.986Z,69.23
2023-02-19T19:19:34.485Z,69.22
2023-02-19T19:22:00.933Z,69.79
2023-02-19T19:24:27.474Z,69.70
2023-02-19T19:26:54.166Z,69.96
2023-02-19T19:29:22.183Z,69.66
2023-02-19T19:31:49.211Z,70.47
2023-02-19T19:34:16.656Z,70.11
2023-02-19T19:36:43.590Z,70.11
2023-02-19T19:39:10.098Z,69.69
2023-02-19T19:41:36.642Z,70.17
2023-02-19T19:44:05.145Z,70.25
2023-02-19T19:46:32.898Z,69.71
2023-02-19T19:48:59.969Z,69.67
2023-02-19T19:51:34.344Z,69.88
2023-02-19T19:54:03.098Z,70.03
2023-02-19T19:56:30.273Z,69.76
2023-02-19T19:58:56.817Z,69.71
2023-02-19T20:01:23.671Z,69.74
2023-02-19T20:03:52.926Z,69.94
2023-02-19T20:06:30.650Z,70.31
2023-02-19T20:08:58.033Z,70.41
2023-02-19T20:11:24.479Z,70.55
2023-02-19T20:13:51.241Z,71.63
2023-02-19T20:16:23.915Z,71.65
2023-02-19T20:18:50.386Z,70.75
2023-02-19T20:21:16.849Z,71.43
2023-02-19T20:23:43.330Z,72.07
2023-02-19T20:26:09.813Z,72.30
2023-02-19T20:28:36.244Z,71.67
2023-02-19T20:31:02.988Z,72.12
2023-02-19T20:33:29.697Z,71.99
2023-02-19T20:35:57.075Z,72.73
2023-02-19T20:38:24.057Z,72.64
2023-02-19T20:40:51.037Z,72.63
2023-02-19T20:43:18.864Z,73.07
2023-02-19T20:45:48.330Z,72.48
2023-02-19T20:48:16.805Z,72.76
2023-02-19T20:50:43.723Z,72.85
2023-02-19T20:53:11.003Z,72.77
2023-02-19T20:55:37.751Z,73.02
2023-02-19T20:58:04.265Z,73.85
2023-02-19T21:00:30.740Z,74.39
2023-02-19T21:02:57.261Z,73.84
2023-02-19T21:05:23.782Z,73.25
2023-02-19T21:07:50.246Z,73.64
2023-02-19T21:10:16.980Z,74.04
2023-02-19T21:12:43.423Z,74.05
2023-02-19T21:15:09.897Z,74.14
2023-02-19T21:17:36.359Z,74.00
2023-02-19T21:20:02.980Z,75.10
2023-02-19T21:22:29.381Z,74.93
2023-02-19T21:24:55.778Z,75.25
2023-02-19T21:27:22.288Z,74.68
2023-02-19T21:29:48.854Z,74.83
2023-02-19T21:32:15.435Z,74.94
2023-02-19T21:34:42.160Z,74.82
2023-02-19T21:37:08.650Z,74.28
2023-02-19T21:39:35.139Z,74.82
2023-02-19T21:42:02.557Z,73.54
2023-02-19T21:44:29.093Z,74.56
2023-02-19T21:46:55.961Z,74.27
2023-02-19T21:49:22.635Z,73.91
2023-02-19T21:51:50.175Z,74.50
2023-02-19T21:54:21.029Z,74.47
2023-02-19T21:56:52.146Z,75.06
2023-02-19T21:59:20.822Z,75.22
2023-02-19T22:01:47.824Z,74.89
2023-02-19T22:04:18.338Z,75.31
2023-02-19T22:06:45.209Z,74.63
2023-02-19T22:09:13.037Z,75.30
2023-02-19T22:11:40.255Z,74.82
2023-02-19T22:14:07.036Z,74.76
2023-02-19T22:16:33.577Z,75.70
2023-02-19T22:19:00.592Z,75.11
2023-02-19T22:21:32.442Z,75.08
2023-02-19T22:24:00.222Z,75.38
2023-02-19T22:26:36.403Z,75.32
2023-02-19T22:29:06.888Z,75.13
2023-02-19T22:31:34.076Z,76.14
2023-02-19T22:34:00.676Z,75.69
2023-02-19T22:36:30.809Z,76.08
2023-02-19T22:38:57.442Z,75.99
2023-02-19T22:41:23.910Z,76.16
2023-02-19T22:43:50.588Z,76.74
2023-02-19T22:46:20.021Z,76.14
2023-02-19T22:48:46.525Z,76.26
2023-02-19T22:51:15.575Z,75.91
2023-02-19T22:53:53.569Z,75.99
2023-02-19T22:56:22.430Z,75.85
2023-02-19T22:58:49.458Z,75.90
2023-02-19T23:01:16.754Z,75.92
2023-02-19T23:03:53.394Z,75.29
2023-02-19T23:06:29.333Z,75.07
2023-02-19T23:08:58.142Z,75.13
2023-02-19T23:11:27.754Z,76.21
2023-02-19T23:13:54.538Z,75.69
2023-02-19T23:16:21.400Z,76.04
2023-02-19T23:18:48.811Z,76.59
2023-02-19T23:21:16.098Z,76.28
2023-02-19T23:23:43.217Z,75.68
2023-02-19T23:26:10.943Z,75.98
2023-02-19T23:28:39.649Z,75.94
2023-02-19T23:31:06.657Z,76.02
2023-02-19T23:33:33.318Z,75.90
2023-02-19T23:35:59.764Z,75.82
2023-02-19T23:38:26.176Z,75.72
2023-02-19T23:40:52.648Z,76.34
2023-02-19T23:43:19.504Z,77.00
2023-02-19T23:45:46.180Z,76.59
2023-02-19T23:48:12.786Z,77.77
2023-02-19T23:50:39.226Z,76.81
2023-02-19T23:53:05.813Z,77.20
2023-02-19T23:55:32.250Z,77.19
2023-02-19T23:57:58.836Z,76.93
